Pagrindinis puslapis
METAR-TAF:

METAR-TAF

Oro uostai :

Bernas, Šveicarija

platuma: 46-55N, ilguma: 007-30E, Aukštis: 505 m

Dabartinis oras

Ataskaita buvo paskelbta 13 minutes, ne 10:50 UTC
Vėjas 4 kt iš Šiaurės Vakarų, svyruoja nuo Vakarų/Pietvakarių ir Šiaurės
Temperatūra 19°C
Drėgmė 68%
Slėgis 1019 hPa
Matomumas 10 km arba daugiau
nėra debesų žemiau 1500 m ir nėra kamuolinių lietaus debesų

METAR: LSZB 211050Z 32004KT 250V010 CAVOK 19/13 Q1019 NOSIG

Laikas: 13:03 (11:03 UTC)

Prognozė

Ataskaita buvo paskelbta 2 valandos ir 38 minutes, ne 08:25 UTC
Prognozė galioja nuo 21 metu 09 UTC su 21 metu 18 UTC
Vėjas 3 kt nuo kintamojo kryptimis
Matomumas 10 km arba daugiau
nėra debesų žemiau 1500 m ir nėra kamuolinių lietaus debesų

TAF: LSZB 210825Z 2109/2118 VRB03KT CAVOK

Orai ataskaitas ir orų prognozės (METAR, TAF).

turimą stotys yra geltonos ir raudonos taškus žemėlapyje.

Perkelti pele per norėdami pamatyti stoties vardą.

Tada spustelėkite, norėdami matyti oro stebėjimo ir prognozės.

Norėdami pakeisti žemėlapį: spustelėkite ant žalios mygtukų su juodo kryžiaus žemyn,; žalią mygtuką su brūkšneliu, jei norite nutolinti; arba žalių rodyklių gretimoms žemėlapius.


METAR-TAF: